createdAt,value
2023-02-04T00:00:23.581Z,98445.97
2023-02-04T00:02:26.352Z,98449.44
2023-02-04T00:04:29.048Z,98452.88
2023-02-04T00:06:31.745Z,98449.44
2023-02-04T00:08:34.296Z,98455.47
2023-02-04T00:10:37.861Z,98450.28
2023-02-04T00:12:40.399Z,98450.28
2023-02-04T00:14:43.018Z,98449.44
2023-02-04T00:16:46.898Z,98459.75
2023-02-04T00:18:49.431Z,98452.88
2023-02-04T00:20:51.987Z,98450.28
2023-02-04T00:22:54.981Z,98441.66
2023-02-04T00:24:57.534Z,98445.97
2023-02-04T00:27:00.115Z,98443.38
2023-02-04T00:29:02.735Z,98438.19
2023-02-04T00:31:05.463Z,98431.31
2023-02-04T00:33:09.383Z,98442.53
2023-02-04T00:35:12.119Z,98444.25
2023-02-04T00:37:14.645Z,98451.16
2023-02-04T00:39:17.390Z,98434.75
2023-02-04T00:41:20.253Z,98432.16
2023-02-04T00:43:22.826Z,98442.50
2023-02-04T00:45:25.504Z,98444.25
2023-02-04T00:47:28.103Z,98453.75
2023-02-04T00:49:32.164Z,98452.03
2023-02-04T00:51:35.155Z,98448.53
2023-02-04T00:53:37.763Z,98447.69
2023-02-04T00:55:40.361Z,98447.69
2023-02-04T00:57:42.928Z,98447.69
2023-02-04T00:59:45.555Z,98446.88
2023-02-04T01:01:48.259Z,98447.72
2023-02-04T01:03:50.827Z,98454.63
2023-02-04T01:05:54.819Z,98448.53
2023-02-04T01:07:57.419Z,98450.28
2023-02-04T01:10:00.009Z,98446.00
2023-02-04T01:12:02.740Z,98448.53
2023-02-04T01:14:05.346Z,98452.88
2023-02-04T01:16:07.932Z,98460.66
2023-02-04T01:18:10.493Z,98460.63
2023-02-04T01:20:13.583Z,98467.53
2023-02-04T01:22:17.512Z,98464.97
2023-02-04T01:24:20.168Z,98460.63
2023-02-04T01:26:23.095Z,98464.09
2023-02-04T01:28:25.747Z,98456.34
2023-02-04T01:30:28.424Z,98461.50
2023-02-04T01:32:31.065Z,98463.22
2023-02-04T01:34:33.629Z,98464.09
2023-02-04T01:36:36.194Z,98467.56
2023-02-04T01:38:40.166Z,98465.84
2023-02-04T01:40:43.231Z,98469.28
2023-02-04T01:42:45.885Z,98469.28
2023-02-04T01:44:48.976Z,98475.34
2023-02-04T01:46:51.565Z,98476.22
2023-02-04T01:48:54.179Z,98477.94
2023-02-04T01:51:04.160Z,98487.41
2023-02-04T01:53:07.032Z,98483.09
2023-02-04T01:55:17.908Z,98482.22
2023-02-04T01:57:20.648Z,98487.41
2023-02-04T01:59:24.254Z,98493.44
2023-02-04T02:01:39.112Z,98488.28
2023-02-04T02:03:41.799Z,98485.72
2023-02-04T02:05:46.433Z,98484.81
2023-02-04T02:07:50.247Z,98487.44
2023-02-04T02:09:52.857Z,98484.84
2023-02-04T02:11:56.858Z,98486.56
2023-02-04T02:13:59.533Z,98480.53
2023-02-04T02:16:02.126Z,98476.22
2023-02-04T02:18:05.055Z,98478.81
2023-02-04T02:20:08.733Z,98488.28
2023-02-04T02:22:16.473Z,98490.88
2023-02-04T02:24:29.116Z,98502.09
2023-02-04T02:26:31.703Z,98510.72
2023-02-04T02:28:34.296Z,98510.72
2023-02-04T02:30:37.313Z,98499.53
2023-02-04T02:32:40.332Z,98503.81
2023-02-04T02:34:44.423Z,98496.06
2023-02-04T02:36:47.094Z,98504.69
2023-02-04T02:38:49.692Z,98514.19
2023-02-04T02:40:54.002Z,98511.59
2023-02-04T02:42:56.692Z,98505.56
2023-02-04T02:45:00.176Z,98509.03
2023-02-04T02:47:02.886Z,98511.63
2023-02-04T02:49:05.644Z,98521.97
2023-02-04T02:51:08.337Z,98520.22
2023-02-04T02:53:12.788Z,98515.91
2023-02-04T02:55:17.701Z,98527.16
2023-02-04T02:57:23.950Z,98537.50
2023-02-04T02:59:30.028Z,98532.31
2023-02-04T03:01:32.688Z,98532.31
2023-02-04T03:03:37.377Z,98528.03
2023-02-04T03:05:43.109Z,98521.09
2023-02-04T03:07:45.762Z,98524.56
2023-02-04T03:09:48.553Z,98530.59
2023-02-04T03:11:51.177Z,98525.41
2023-02-04T03:13:55.245Z,98521.97
2023-02-04T03:15:58.677Z,98540.97
2023-02-04T03:18:01.930Z,98532.31
2023-02-04T03:20:05.540Z,98534.91
2023-02-04T03:22:08.832Z,98538.38
2023-02-04T03:24:11.457Z,98545.28
2023-02-04T03:26:14.081Z,98547.88
2023-02-04T03:28:16.767Z,98555.63
2023-02-04T03:30:21.258Z,98553.03
2023-02-04T03:32:23.920Z,98561.69
2023-02-04T03:34:26.918Z,98560.81
2023-02-04T03:36:29.537Z,98569.47
2023-02-04T03:38:33.840Z,98568.59
2023-02-04T03:40:36.525Z,98566.03
2023-02-04T03:42:39.178Z,98576.38
2023-02-04T03:44:41.767Z,98581.56
2023-02-04T03:46:45.772Z,98581.56
2023-02-04T03:48:48.348Z,98580.69
2023-02-04T03:50:50.925Z,98585.88
2023-02-04T03:52:53.829Z,98582.41
2023-02-04T03:54:56.418Z,98589.34
2023-02-04T03:56:58.943Z,98591.06
2023-02-04T03:59:01.540Z,98594.47
2023-02-04T04:01:04.116Z,98598.81
2023-02-04T04:03:08.053Z,98599.66
2023-02-04T04:05:11.677Z,98602.25
2023-02-04T04:07:14.278Z,98597.06
2023-02-04T04:09:16.855Z,98600.53
2023-02-04T04:11:19.515Z,98599.66
2023-02-04T04:13:22.095Z,98597.06
2023-02-04T04:15:25.874Z,98600.53
2023-02-04T04:17:28.446Z,98603.13
2023-02-04T04:19:33.170Z,98613.50
2023-02-04T04:21:35.759Z,98609.16
2023-02-04T04:23:38.954Z,98611.75
2023-02-04T04:25:41.578Z,98609.16
2023-02-04T04:27:44.333Z,98610.91
2023-02-04T04:29:46.909Z,98606.59
2023-02-04T04:31:49.672Z,98616.09
2023-02-04T04:33:52.286Z,98610.91
2023-02-04T04:35:56.180Z,98609.19
2023-02-04T04:37:58.769Z,98626.44
2023-02-04T04:40:01.716Z,98619.56
2023-02-04T04:42:04.360Z,98616.97
2023-02-04T04:44:07.425Z,98620.38
2023-02-04T04:46:09.983Z,98624.69
2023-02-04T04:48:12.750Z,98614.34
2023-02-04T04:50:15.351Z,98619.53
2023-02-04T04:52:19.286Z,98622.09
2023-02-04T04:54:21.835Z,98622.97
2023-02-04T04:56:24.399Z,98614.34
2023-02-04T04:58:26.960Z,98616.09
2023-02-04T05:00:29.771Z,98624.69
2023-02-04T05:02:32.441Z,98625.56
2023-02-04T05:04:35.060Z,98626.44
2023-02-04T05:06:37.689Z,98629.03
2023-02-04T05:08:41.644Z,98632.50
2023-02-04T05:10:45.632Z,98630.75
2023-02-04T05:12:48.217Z,98634.22
2023-02-04T05:14:50.771Z,98635.94
2023-02-04T05:16:53.367Z,98634.19
2023-02-04T05:18:55.937Z,98629.03
2023-02-04T05:20:58.526Z,98624.72
2023-02-04T05:23:02.261Z,98626.44
2023-02-04T05:25:08.028Z,98629.88
2023-02-04T05:27:10.592Z,98630.75
2023-02-04T05:29:13.159Z,98632.47
2023-02-04T05:31:15.843Z,98628.16
2023-02-04T05:33:18.547Z,98622.97
2023-02-04T05:35:21.634Z,98627.31
2023-02-04T05:37:24.175Z,98629.00
2023-02-04T05:39:26.738Z,98629.00
2023-02-04T05:41:30.596Z,98628.16
2023-02-04T05:43:33.161Z,98635.94
2023-02-04T05:45:35.822Z,98647.13
2023-02-04T05:47:38.414Z,98648.88
2023-02-04T05:49:40.980Z,98653.19
2023-02-04T05:51:46.229Z,98649.72
2023-02-04T05:53:48.824Z,98646.28
2023-02-04T05:55:51.503Z,98648.88
2023-02-04T05:57:55.388Z,98660.09
2023-02-04T05:59:57.975Z,98651.44
2023-02-04T06:02:00.603Z,98651.44
2023-02-04T06:04:03.290Z,98648.88
2023-02-04T06:06:06.175Z,98652.31
2023-02-04T06:08:08.734Z,98655.78
2023-02-04T06:10:12.320Z,98653.19
2023-02-04T06:12:14.902Z,98656.63
2023-02-04T06:14:18.798Z,98655.75
2023-02-04T06:16:21.484Z,98670.41
2023-02-04T06:18:27.039Z,98666.06
2023-02-04T06:20:29.999Z,98668.66
2023-02-04T06:22:32.799Z,98681.63
2023-02-04T06:24:37.367Z,98688.50
2023-02-04T06:26:40.009Z,98702.34
2023-02-04T06:28:42.588Z,98699.75
2023-02-04T06:30:46.668Z,98695.47
2023-02-04T06:32:49.331Z,98700.63
2023-02-04T06:34:51.923Z,98702.31
2023-02-04T06:36:54.469Z,98703.16
2023-02-04T06:38:57.453Z,98704.88
2023-02-04T06:40:59.993Z,98707.47
2023-02-04T06:43:04.301Z,98706.63
2023-02-04T06:45:08.364Z,98705.75
2023-02-04T06:47:12.254Z,98704.88
2023-02-04T06:49:14.804Z,98708.28
2023-02-04T06:51:19.979Z,98713.50
2023-02-04T06:53:22.716Z,98715.22
2023-02-04T06:55:25.278Z,98714.34
2023-02-04T06:57:27.917Z,98710.91
2023-02-04T06:59:33.046Z,98714.34
2023-02-04T07:01:35.633Z,98714.34
2023-02-04T07:03:39.546Z,98722.94
2023-02-04T07:05:42.137Z,98721.22
2023-02-04T07:07:44.707Z,98722.94
2023-02-04T07:09:47.352Z,98731.56
2023-02-04T07:11:49.906Z,98736.75
2023-02-04T07:13:52.459Z,98734.16
2023-02-04T07:15:55.065Z,98741.06
2023-02-04T07:17:57.630Z,98741.06
2023-02-04T07:20:01.566Z,98758.34
2023-02-04T07:22:04.193Z,98752.28
2023-02-04T07:24:07.160Z,98749.72
2023-02-04T07:26:09.714Z,98749.72
2023-02-04T07:28:12.398Z,98746.28
2023-02-04T07:30:15.376Z,98748.81
2023-02-04T07:32:17.962Z,98748.81
2023-02-04T07:34:20.714Z,98752.28
2023-02-04T07:36:26.200Z,98757.47
2023-02-04T07:38:28.807Z,98767.84
2023-02-04T07:40:31.778Z,98774.78
2023-02-04T07:42:34.758Z,98767.00
2023-02-04T07:44:37.584Z,98772.19
2023-02-04T07:46:40.196Z,98773.06
2023-02-04T07:48:42.806Z,98768.78
2023-02-04T07:50:45.419Z,98770.50
2023-02-04T07:52:49.296Z,98767.06
2023-02-04T07:54:52.464Z,98775.66
2023-02-04T07:56:55.044Z,98784.31
2023-02-04T07:58:57.604Z,98780.00
2023-02-04T08:01:01.248Z,98787.78
2023-02-04T08:03:03.798Z,98783.47
2023-02-04T08:05:07.235Z,98784.31
2023-02-04T08:07:09.790Z,98791.22
2023-02-04T08:09:16.182Z,98793.78
2023-02-04T08:11:18.809Z,98787.75
2023-02-04T08:13:21.332Z,98796.38
2023-02-04T08:15:23.943Z,98802.44
2023-02-04T08:17:26.498Z,98806.78
2023-02-04T08:19:29.066Z,98805.91
2023-02-04T08:21:31.632Z,98803.31
2023-02-04T08:23:34.321Z,98802.53
2023-02-04T08:25:38.234Z,98806.84
2023-02-04T08:27:40.874Z,98810.28
2023-02-04T08:29:43.469Z,98808.56
2023-02-04T08:31:47.709Z,98810.31
2023-02-04T08:33:50.331Z,98812.91
2023-02-04T08:35:55.213Z,98812.00
2023-02-04T08:37:58.083Z,98810.31
2023-02-04T08:40:00.729Z,98809.47
2023-02-04T08:42:04.766Z,98820.69
2023-02-04T08:44:07.462Z,98822.44
2023-02-04T08:46:10.211Z,98823.28
2023-02-04T08:48:12.803Z,98824.16
2023-02-04T08:50:15.612Z,98833.69
2023-02-04T08:52:18.987Z,98834.50
2023-02-04T08:54:21.662Z,98843.16
2023-02-04T08:56:24.187Z,98840.56
2023-02-04T08:58:28.127Z,98837.16
2023-02-04T09:00:31.542Z,98840.56
2023-02-04T09:02:34.370Z,98842.31
2023-02-04T09:04:36.967Z,98843.19
2023-02-04T09:06:39.532Z,98850.13
2023-02-04T09:08:42.105Z,98851.00
2023-02-04T09:10:44.680Z,98851.00
2023-02-04T09:12:47.323Z,98857.06
2023-02-04T09:14:51.185Z,98861.38
2023-02-04T09:16:53.753Z,98858.81
2023-02-04T09:18:56.418Z,98859.66
2023-02-04T09:21:02.162Z,98864.84
2023-02-04T09:23:04.832Z,98862.28
2023-02-04T09:25:08.399Z,98868.31
2023-02-04T09:27:11.014Z,98864.03
2023-02-04T09:29:13.617Z,98863.19
2023-02-04T09:31:17.818Z,98865.78
2023-02-04T09:33:20.486Z,98860.59
2023-02-04T09:35:23.081Z,98863.19
2023-02-04T09:37:27.041Z,98870.97
2023-02-04T09:39:29.886Z,98881.34
2023-02-04T09:41:33.929Z,98879.63
2023-02-04T09:43:39.949Z,98883.94
2023-02-04T09:45:42.661Z,98891.75
2023-02-04T09:47:46.713Z,98893.47
2023-02-04T09:49:49.247Z,98900.41
2023-02-04T09:51:52.731Z,98895.22
2023-02-04T09:54:03.650Z,98892.63
2023-02-04T09:56:07.349Z,98900.41
2023-02-04T09:58:16.368Z,98904.75
2023-02-04T10:00:21.993Z,98911.66
2023-02-04T10:02:27.067Z,98913.41
2023-02-04T10:04:30.987Z,98903.06
2023-02-04T10:06:33.733Z,98906.50
2023-02-04T10:08:36.319Z,98912.53
2023-02-04T10:10:40.322Z,98909.13
2023-02-04T10:12:42.886Z,98904.78
2023-02-04T10:14:45.759Z,98906.53
2023-02-04T10:16:53.395Z,98902.22
2023-02-04T10:18:57.023Z,98915.19
2023-02-04T10:21:13.593Z,98911.72
2023-02-04T10:23:16.219Z,98905.69
2023-02-04T10:25:21.191Z,98904.81
2023-02-04T10:27:23.712Z,98897.91
2023-02-04T10:29:26.324Z,98905.69
2023-02-04T10:31:32.019Z,98903.97
2023-02-04T10:33:37.053Z,98900.50
2023-02-04T10:35:46.758Z,98903.97
2023-02-04T10:38:04.573Z,98899.66
2023-02-04T10:40:07.815Z,98901.38
2023-02-04T10:42:22.217Z,98902.25
2023-02-04T10:44:28.791Z,98893.59
2023-02-04T10:46:31.757Z,98902.25
2023-02-04T10:48:41.338Z,98892.75
2023-02-04T10:50:43.933Z,98890.16
2023-02-04T10:52:50.737Z,98886.69
2023-02-04T10:54:52.470Z,98880.63
2023-02-04T10:56:54.894Z,98877.16
2023-02-04T10:58:57.472Z,98883.22
2023-02-04T11:01:00.169Z,98879.78
2023-02-04T11:03:08.078Z,98879.78
2023-02-04T11:05:19.566Z,98874.59
2023-02-04T11:07:23.751Z,98879.78
2023-02-04T11:09:27.719Z,98872.88
2023-02-04T11:11:30.306Z,98868.56
2023-02-04T11:13:42.452Z,98872.03
2023-02-04T11:15:50.159Z,98872.88
2023-02-04T11:18:03.950Z,98872.00
2023-02-04T11:20:17.279Z,98874.63
2023-02-04T11:22:25.378Z,98878.06
2023-02-04T11:24:34.382Z,98878.94
2023-02-04T11:26:40.089Z,98878.94
2023-02-04T11:28:49.655Z,98876.34
2023-02-04T11:31:00.505Z,98880.69
2023-02-04T11:33:05.253Z,98879.81
2023-02-04T11:35:22.826Z,98877.22
2023-02-04T11:37:37.201Z,98875.50
2023-02-04T11:39:43.338Z,98886.75
2023-02-04T11:41:46.719Z,98884.19
2023-02-04T11:43:51.857Z,98872.03
2023-02-04T11:46:03.719Z,98873.78
2023-02-04T11:48:14.154Z,98874.66
2023-02-04T11:50:22.293Z,98868.59
2023-02-04T11:52:24.881Z,98869.47
2023-02-04T11:54:27.412Z,98859.94
2023-02-04T11:56:31.527Z,98862.53
2023-02-04T11:58:34.602Z,98859.06
2023-02-04T12:00:38.232Z,98858.19
2023-02-04T12:02:46.799Z,98863.41
2023-02-04T12:04:58.313Z,98857.31
2023-02-04T12:07:03.344Z,98857.28
2023-02-04T12:09:07.402Z,98858.16
2023-02-04T12:11:12.660Z,98863.34
2023-02-04T12:13:24.261Z,98863.31
2023-02-04T12:15:35.783Z,98876.31
2023-02-04T12:17:38.788Z,98865.06
2023-02-04T12:19:41.391Z,98872.03
2023-02-04T12:21:44.500Z,98872.88
2023-02-04T12:23:47.051Z,98874.63
2023-02-04T12:25:50.647Z,98868.56
2023-02-04T12:27:54.444Z,98871.16
2023-02-04T12:29:58.351Z,98870.28
2023-02-04T12:32:00.956Z,98885.88
2023-02-04T12:34:03.676Z,98880.69
2023-02-04T12:36:06.857Z,98879.81
2023-02-04T12:38:10.262Z,98884.16
2023-02-04T12:40:16.167Z,98882.47
2023-02-04T12:42:18.706Z,98886.78
2023-02-04T12:44:21.327Z,98891.09
2023-02-04T12:46:25.487Z,98895.44
2023-02-04T12:48:28.162Z,98891.97
2023-02-04T12:50:34.048Z,98892.84
2023-02-04T12:52:36.866Z,98892.84
2023-02-04T12:54:39.419Z,98897.16
2023-02-04T12:56:43.715Z,98891.97
2023-02-04T12:58:46.278Z,98900.66
2023-02-04T13:00:48.852Z,98894.56
2023-02-04T13:02:54.755Z,98890.22
2023-02-04T13:04:57.663Z,98897.16
2023-02-04T13:07:01.564Z,98903.22
2023-02-04T13:09:04.843Z,98902.38
2023-02-04T13:11:07.450Z,98908.41
2023-02-04T13:13:09.994Z,98896.31
2023-02-04T13:15:12.573Z,98901.47
2023-02-04T13:17:15.115Z,98895.44
2023-02-04T13:19:19.024Z,98900.63
2023-02-04T13:21:21.619Z,98900.59
2023-02-04T13:23:24.180Z,98897.16
2023-02-04T13:25:26.798Z,98897.16
2023-02-04T13:27:29.633Z,98897.16
2023-02-04T13:29:32.367Z,98902.31
2023-02-04T13:31:35.049Z,98905.81
2023-02-04T13:33:37.601Z,98897.13
2023-02-04T13:35:41.473Z,98904.09
2023-02-04T13:37:44.427Z,98908.41
2023-02-04T13:39:46.981Z,98898.03
2023-02-04T13:41:49.514Z,98908.41
2023-02-04T13:43:52.218Z,98908.41
2023-02-04T13:45:54.827Z,98902.34
2023-02-04T13:47:57.450Z,98905.81
2023-02-04T13:50:00.208Z,98901.50
2023-02-04T13:52:04.138Z,98909.28
2023-02-04T13:54:06.791Z,98913.59
2023-02-04T13:56:09.791Z,98911.88
2023-02-04T13:58:12.461Z,98909.28
2023-02-04T14:00:16.145Z,98914.47
2023-02-04T14:02:18.879Z,98918.81
2023-02-04T14:04:21.502Z,98926.59
2023-02-04T14:06:33.250Z,98921.41
2023-02-04T14:08:37.490Z,98923.97
2023-02-04T14:10:40.040Z,98930.06
2023-02-04T14:12:42.688Z,98926.59
2023-02-04T14:14:45.274Z,98936.13
2023-02-04T14:16:47.938Z,98939.59
2023-02-04T14:18:51.893Z,98939.59
2023-02-04T14:20:54.466Z,98943.91
2023-02-04T14:22:57.061Z,98937.84
2023-02-04T14:25:00.999Z,98932.66
2023-02-04T14:27:07.286Z,98929.19
2023-02-04T14:29:11.149Z,98929.19
2023-02-04T14:31:13.691Z,98928.34
2023-02-04T14:33:18.088Z,98926.56
2023-02-04T14:35:21.004Z,98922.22
2023-02-04T14:37:25.568Z,98923.06
2023-02-04T14:39:28.088Z,98925.63
2023-02-04T14:41:32.158Z,98926.44
2023-02-04T14:43:37.384Z,98926.34
2023-02-04T14:45:40.900Z,98930.63
2023-02-04T14:47:43.579Z,98934.97
2023-02-04T14:49:46.147Z,98929.66
2023-02-04T14:51:48.720Z,98930.53
2023-02-04T14:53:51.341Z,98937.38
2023-02-04T14:55:53.919Z,98943.47
2023-02-04T14:57:57.796Z,98946.00
2023-02-04T15:00:00.374Z,98956.44
2023-02-04T15:02:02.942Z,98948.63
2023-02-04T15:04:05.702Z,98956.44
2023-02-04T15:06:08.503Z,98953.94
2023-02-04T15:08:11.138Z,98956.59
2023-02-04T15:10:15.364Z,98949.69
2023-02-04T15:12:18.103Z,98955.81
2023-02-04T15:14:22.584Z,98953.28
2023-02-04T15:16:25.175Z,98950.72
2023-02-04T15:18:29.030Z,98951.63
2023-02-04T15:20:31.996Z,98949.03
2023-02-04T15:22:34.750Z,98958.59
2023-02-04T15:24:37.371Z,98962.91
2023-02-04T15:26:40.000Z,98954.28
2023-02-04T15:28:42.610Z,98956.00
2023-02-04T15:30:46.604Z,98950.81
2023-02-04T15:32:49.248Z,98957.78
2023-02-04T15:34:51.817Z,98963.84
2023-02-04T15:36:54.443Z,98963.81
2023-02-04T15:38:56.986Z,98961.22
2023-02-04T15:40:59.551Z,98964.69
2023-02-04T15:43:02.140Z,98962.94
2023-02-04T15:45:05.272Z,98967.31
2023-02-04T15:47:09.196Z,98968.16
2023-02-04T15:49:11.759Z,98970.75
2023-02-04T15:51:14.306Z,98968.16
2023-02-04T15:53:16.983Z,98962.09
2023-02-04T15:55:19.568Z,98966.41
2023-02-04T15:57:22.180Z,98963.78
2023-02-04T15:59:24.846Z,98972.41
2023-02-04T16:01:27.436Z,98977.59
2023-02-04T16:03:31.389Z,98988.81
2023-02-04T16:05:33.910Z,98985.34
2023-02-04T16:07:36.499Z,98979.28
2023-02-04T16:09:39.115Z,98982.72
2023-02-04T16:11:41.677Z,98978.38
2023-02-04T16:13:44.285Z,98981.78
2023-02-04T16:15:46.885Z,98984.38
2023-02-04T16:17:49.526Z,98990.41
2023-02-04T16:19:53.418Z,98988.63
2023-02-04T16:21:56.286Z,98992.06
2023-02-04T16:23:58.875Z,98992.03
2023-02-04T16:26:01.428Z,98992.84
2023-02-04T16:28:04.193Z,98995.44
2023-02-04T16:30:07.851Z,99001.47
2023-02-04T16:32:10.435Z,98999.72
2023-02-04T16:34:12.991Z,99007.44
2023-02-04T16:36:18.513Z,99011.72
2023-02-04T16:38:21.329Z,99011.72
2023-02-04T16:40:23.853Z,99010.81
2023-02-04T16:42:26.504Z,99010.75
2023-02-04T16:44:29.775Z,99009.88
2023-02-04T16:46:33.847Z,99003.78
2023-02-04T16:48:37.164Z,99007.22
2023-02-04T16:50:39.733Z,99012.41
2023-02-04T16:52:43.617Z,99010.66
2023-02-04T16:54:46.238Z,99014.94
2023-02-04T16:56:48.766Z,99020.13
2023-02-04T16:58:51.358Z,99022.69
2023-02-04T17:00:54.370Z,99011.44
2023-02-04T17:02:57.156Z,99020.03
2023-02-04T17:04:59.798Z,99023.50
2023-02-04T17:07:02.497Z,99028.66
2023-02-04T17:09:06.564Z,99026.84
2023-02-04T17:11:26.849Z,99027.72
2023-02-04T17:13:29.566Z,99029.44
2023-02-04T17:15:32.535Z,99024.25
2023-02-04T17:17:35.354Z,99018.16
2023-02-04T17:19:37.890Z,99022.47
2023-02-04T17:21:40.552Z,99023.31
2023-02-04T17:23:45.621Z,99035.47
2023-02-04T17:25:49.953Z,99032.81
2023-02-04T17:27:53.421Z,99039.75
2023-02-04T17:29:56.102Z,99043.16
2023-02-04T17:31:58.674Z,99037.97
2023-02-04T17:34:01.558Z,99036.25
2023-02-04T17:36:05.231Z,99032.78
2023-02-04T17:38:07.793Z,99032.78
2023-02-04T17:40:13.445Z,99035.31
2023-02-04T17:42:17.348Z,99043.09
2023-02-04T17:44:23.741Z,99047.38
2023-02-04T17:46:27.539Z,99047.38
2023-02-04T17:48:30.714Z,99048.22
2023-02-04T17:52:43.891Z,99050.00
2023-02-04T17:54:46.433Z,99047.34
2023-02-04T17:56:49.045Z,99050.81
2023-02-04T17:58:52.972Z,99055.09
2023-02-04T18:00:57.740Z,99058.56
2023-02-04T18:03:00.660Z,99060.28
2023-02-04T18:05:14.666Z,99062.91
2023-02-04T18:07:17.257Z,99064.63
2023-02-04T18:09:19.958Z,99071.50
2023-02-04T18:11:27.276Z,99067.25
2023-02-04T18:13:32.744Z,99068.94
2023-02-04T18:15:37.120Z,99069.00
2023-02-04T18:17:39.839Z,99071.59
2023-02-04T18:19:44.915Z,99063.81
2023-02-04T18:21:47.537Z,99062.94
2023-02-04T18:24:01.358Z,99065.53
2023-02-04T18:26:12.460Z,99056.91
2023-02-04T18:28:17.905Z,99063.75
2023-02-04T18:30:22.686Z,99063.75
2023-02-04T18:32:34.392Z,99059.44
2023-02-04T18:34:40.291Z,99063.69
2023-02-04T18:36:42.899Z,99061.94
2023-02-04T18:38:45.896Z,99061.03
2023-02-04T18:40:49.327Z,99060.19
2023-02-04T18:43:01.886Z,99067.09
2023-02-04T18:45:19.889Z,99061.91
2023-02-04T18:47:31.581Z,99063.63
2023-02-04T18:49:38.115Z,99067.91
2023-02-04T18:51:41.464Z,99067.06
2023-02-04T18:53:44.011Z,99058.41
2023-02-04T18:55:48.380Z,99061.81
2023-02-04T18:57:50.966Z,99063.50
2023-02-04T18:59:54.966Z,99070.34
2023-02-04T19:01:57.680Z,99064.34
2023-02-04T19:04:03.446Z,99061.75
2023-02-04T19:06:25.013Z,99069.44
2023-02-04T19:08:30.243Z,99069.41
2023-02-04T19:10:34.739Z,99078.06
2023-02-04T19:12:37.492Z,99077.16
2023-02-04T19:14:41.850Z,99078.84
2023-02-04T19:16:45.309Z,99068.47
2023-02-04T19:18:48.418Z,99072.69
2023-02-04T19:20:52.989Z,99071.75
2023-02-04T19:22:56.891Z,99065.63
2023-02-04T19:25:02.935Z,99069.09
2023-02-04T19:27:29.095Z,99069.03
2023-02-04T19:29:39.553Z,99069.84
2023-02-04T19:31:42.819Z,99065.47
2023-02-04T19:33:46.261Z,99066.28
2023-02-04T19:35:49.538Z,99064.53
2023-02-04T19:37:56.364Z,99067.88
2023-02-04T19:39:58.945Z,99062.59
2023-02-04T19:42:02.167Z,99065.97
2023-02-04T19:44:41.753Z,99062.44
2023-02-04T19:46:45.261Z,99066.69
2023-02-04T19:48:48.235Z,99076.13
2023-02-04T19:50:52.582Z,99076.16
2023-02-04T19:53:01.902Z,99073.47
2023-02-04T19:55:44.202Z,99074.28
2023-02-04T19:57:47.772Z,99075.03
2023-02-04T19:59:50.357Z,99075.03
2023-02-04T20:01:59.171Z,99075.94
2023-02-04T20:04:02.912Z,99075.03
2023-02-04T20:06:26.384Z,99071.53
2023-02-04T20:08:45.875Z,99069.69
2023-02-04T20:10:48.417Z,99075.69
2023-02-04T20:12:52.288Z,99080.72
2023-02-04T20:14:57.664Z,99080.63
2023-02-04T20:17:03.382Z,99084.81
2023-02-04T20:19:18.979Z,99089.09
2023-02-04T20:21:21.570Z,99092.47
2023-02-04T20:23:29.174Z,99095.84
2023-02-04T20:25:43.642Z,99101.81
2023-02-04T20:27:55.204Z,99107.78
2023-02-04T20:30:02.838Z,99107.78
2023-02-04T20:32:18.284Z,99109.44
2023-02-04T20:34:23.865Z,99103.28
2023-02-04T20:36:40.777Z,99108.25
2023-02-04T20:38:43.430Z,99114.31
2023-02-04T20:40:47.592Z,99106.53
2023-02-04T20:42:52.879Z,99124.56
2023-02-04T20:44:56.887Z,99124.53
2023-02-04T20:47:11.774Z,99125.38
2023-02-04T20:49:22.973Z,99127.94
2023-02-04T20:51:26.933Z,99123.63
2023-02-04T20:53:38.137Z,99126.19
2023-02-04T20:55:40.758Z,99125.38
2023-02-04T20:57:44.663Z,99126.16
2023-02-04T20:59:49.447Z,99129.53
2023-02-04T21:01:52.770Z,99126.78
2023-02-04T21:03:56.216Z,99124.97
2023-02-04T21:06:00.970Z,99134.28
2023-02-04T21:08:05.666Z,99130.94
2023-02-04T21:10:08.942Z,99125.75
2023-02-04T21:12:12.090Z,99132.72
2023-02-04T21:14:16.147Z,99137.13
2023-02-04T21:16:19.580Z,99131.88
2023-02-04T21:18:22.303Z,99139.56
2023-02-04T21:20:25.438Z,99141.16
2023-02-04T21:22:27.974Z,99142.03
2023-02-04T21:24:31.712Z,99135.88
2023-02-04T21:26:35.129Z,99136.78
2023-02-04T21:28:37.786Z,99132.53
2023-02-04T21:30:42.022Z,99129.94
2023-02-04T21:32:44.983Z,99129.91
2023-02-04T21:34:47.616Z,99120.41
2023-02-04T21:36:50.245Z,99123.78
2023-02-04T21:38:52.796Z,99121.13
2023-02-04T21:40:55.344Z,99121.97
2023-02-04T21:42:58.014Z,99127.16
2023-02-04T21:45:01.798Z,99122.06
2023-02-04T21:47:06.773Z,99131.59
2023-02-04T21:49:09.331Z,99128.13
2023-02-04T21:51:12.747Z,99128.28
2023-02-04T21:53:15.485Z,99133.41
2023-02-04T21:55:21.367Z,99134.28
2023-02-04T21:57:24.007Z,99137.75
2023-02-04T21:59:26.600Z,99143.84
2023-02-04T22:01:29.232Z,99146.56
2023-02-04T22:03:33.310Z,99148.28
2023-02-04T22:05:36.134Z,99147.44
2023-02-04T22:07:40.220Z,99140.59
2023-02-04T22:09:42.782Z,99138.03
2023-02-04T22:11:48.174Z,99140.59
2023-02-04T22:13:50.759Z,99137.19
2023-02-04T22:15:53.347Z,99139.66
2023-02-04T22:17:56.889Z,99143.81
2023-02-04T22:20:00.819Z,99147.19
2023-02-04T22:22:03.445Z,99141.97
2023-02-04T22:24:06.603Z,99138.56
2023-02-04T22:26:09.496Z,99141.09
2023-02-04T22:28:12.070Z,99137.63
2023-02-04T22:30:16.686Z,99137.63
2023-02-04T22:32:19.285Z,99132.53
2023-02-04T22:34:22.224Z,99141.16
2023-02-04T22:36:26.216Z,99142.84
2023-02-04T22:38:28.797Z,99139.34
2023-02-04T22:40:31.399Z,99141.88
2023-02-04T22:42:33.948Z,99134.09
2023-02-04T22:44:36.591Z,99134.06
2023-02-04T22:46:39.208Z,99147.00
2023-02-04T22:48:41.777Z,99137.53
2023-02-04T22:50:44.339Z,99135.88
2023-02-04T22:52:48.260Z,99138.47
2023-02-04T22:54:50.864Z,99131.59
2023-02-04T22:56:53.411Z,99134.13
2023-02-04T22:58:55.978Z,99132.34
2023-02-04T23:00:58.617Z,99131.56
2023-02-04T23:03:01.266Z,99132.47
2023-02-04T23:05:04.074Z,99135.03
2023-02-04T23:07:08.435Z,99135.97
2023-02-04T23:09:12.583Z,99135.13
2023-02-04T23:11:15.748Z,99136.00
2023-02-04T23:13:19.141Z,99137.78
2023-02-04T23:15:21.970Z,99139.56
2023-02-04T23:17:24.601Z,99144.81
2023-02-04T23:19:27.160Z,99143.22
2023-02-04T23:21:29.894Z,99141.53
2023-02-04T23:23:32.534Z,99140.84
2023-02-04T23:25:37.233Z,99133.97
2023-02-04T23:27:40.057Z,99131.34
2023-02-04T23:29:42.962Z,99129.59
2023-02-04T23:31:45.647Z,99130.44
2023-02-04T23:33:48.252Z,99137.34
2023-02-04T23:35:51.119Z,99142.44
2023-02-04T23:37:53.738Z,99136.41
2023-02-04T23:39:56.289Z,99133.78
2023-02-04T23:42:00.214Z,99135.59
2023-02-04T23:44:02.766Z,99129.56
2023-02-04T23:46:05.556Z,99139.91
2023-02-04T23:48:08.291Z,99130.47
2023-02-04T23:50:11.304Z,99125.28
2023-02-04T23:52:13.879Z,99138.25
2023-02-04T23:54:16.531Z,99135.66
2023-02-04T23:56:19.089Z,99137.44
2023-02-04T23:58:23.039Z,99139.13
